createdAt,value
2022-11-27T00:01:44.924Z,4.03
2022-11-27T00:04:47.884Z,3.97
2022-11-27T00:07:49.375Z,3.94
2022-11-27T00:10:51.178Z,3.89
2022-11-27T00:13:53.004Z,3.88
2022-11-27T00:16:54.485Z,3.87
2022-11-27T00:19:57.680Z,3.91
2022-11-27T00:22:59.396Z,3.91
2022-11-27T00:26:00.903Z,3.90
2022-11-27T00:29:02.659Z,3.91
2022-11-27T00:32:06.560Z,3.88
2022-11-27T00:35:09.969Z,3.90
2022-11-27T00:38:11.755Z,3.85
2022-11-27T00:41:15.382Z,3.87
2022-11-27T00:44:17.113Z,3.81
2022-11-27T00:47:18.596Z,3.77
2022-11-27T00:50:21.400Z,3.73
2022-11-27T00:53:22.975Z,3.70
2022-11-27T00:56:27.005Z,3.72
2022-11-27T00:59:28.563Z,3.75
2022-11-27T01:02:30.138Z,3.69
2022-11-27T01:05:35.547Z,3.77
2022-11-27T01:08:37.342Z,3.76
2022-11-27T01:11:39.700Z,3.72
2022-11-27T01:14:41.448Z,3.74
2022-11-27T01:17:43.167Z,3.75
2022-11-27T01:20:46.574Z,3.79
2022-11-27T01:23:48.629Z,3.79
2022-11-27T01:26:50.185Z,3.76
2022-11-27T01:29:51.839Z,3.79
2022-11-27T01:32:53.375Z,3.76
2022-11-27T01:35:57.690Z,3.74
2022-11-27T01:38:59.754Z,3.69
2022-11-27T01:42:01.423Z,3.66
2022-11-27T01:45:03.019Z,3.65
2022-11-27T01:48:04.750Z,3.69
2022-11-27T01:51:07.818Z,3.63
2022-11-27T01:54:10.483Z,3.61
2022-11-27T01:57:15.331Z,3.65
2022-11-27T02:00:17.569Z,3.62
2022-11-27T02:03:19.647Z,3.54
2022-11-27T02:06:22.767Z,3.53
2022-11-27T02:09:24.614Z,3.53
2022-11-27T02:12:28.148Z,3.53
2022-11-27T02:15:33.794Z,3.55
2022-11-27T02:18:38.886Z,3.57
2022-11-27T02:21:46.317Z,3.58
2022-11-27T02:24:50.599Z,3.58
2022-11-27T02:28:08.473Z,3.59
2022-11-27T02:31:15.689Z,3.61
2022-11-27T02:34:23.380Z,3.58
2022-11-27T02:37:27.504Z,3.55
2022-11-27T02:40:32.047Z,3.56
2022-11-27T02:43:34.824Z,3.56
2022-11-27T02:46:38.096Z,3.51
2022-11-27T02:49:41.124Z,3.44
2022-11-27T02:52:44.400Z,3.47
2022-11-27T02:55:48.517Z,3.46
2022-11-27T02:58:51.106Z,3.49
2022-11-27T03:01:57.266Z,3.49
2022-11-27T03:05:00.625Z,3.52
2022-11-27T03:08:05.315Z,3.44
2022-11-27T03:11:07.854Z,3.41
2022-11-27T03:14:10.570Z,3.40
2022-11-27T03:17:20.173Z,3.33
2022-11-27T03:20:24.185Z,3.30
2022-11-27T03:23:25.728Z,3.31
2022-11-27T03:26:27.376Z,3.32
2022-11-27T03:29:31.044Z,3.35
2022-11-27T03:32:34.829Z,3.36
2022-11-27T03:35:36.959Z,3.30
2022-11-27T03:38:38.446Z,3.31
2022-11-27T03:41:44.912Z,3.27
2022-11-27T03:44:48.606Z,3.28
2022-11-27T03:47:56.449Z,3.35
2022-11-27T03:51:02.973Z,3.35
2022-11-27T03:54:05.771Z,3.31
2022-11-27T03:57:13.541Z,3.27
2022-11-27T04:00:15.539Z,3.26
2022-11-27T04:03:22.879Z,3.30
2022-11-27T04:06:24.387Z,3.32
2022-11-27T04:09:25.941Z,3.29
2022-11-27T04:12:27.398Z,3.26
2022-11-27T04:15:28.850Z,3.25
2022-11-27T04:18:31.726Z,3.20
2022-11-27T04:21:33.590Z,3.16
2022-11-27T04:24:35.077Z,3.13
2022-11-27T04:27:36.587Z,3.12
2022-11-27T04:30:38.068Z,3.07
2022-11-27T04:33:41.051Z,3.07
2022-11-27T04:36:42.978Z,3.06
2022-11-27T04:39:44.484Z,3.02
2022-11-27T04:42:46.282Z,3.03
2022-11-27T04:45:47.999Z,3.05
2022-11-27T04:48:50.850Z,3.00
2022-11-27T04:51:52.477Z,3.03
2022-11-27T04:54:59.616Z,3.02
2022-11-27T04:58:01.913Z,2.98
2022-11-27T05:01:03.594Z,2.90
2022-11-27T05:04:06.553Z,2.97
2022-11-27T05:07:08.254Z,2.90
2022-11-27T05:10:10.238Z,2.86
2022-11-27T05:13:12.179Z,2.86
2022-11-27T05:16:13.736Z,2.78
2022-11-27T05:19:19.874Z,2.78
2022-11-27T05:22:21.336Z,2.75
2022-11-27T05:25:23.689Z,2.72
2022-11-27T05:28:26.834Z,2.73
2022-11-27T05:31:28.995Z,2.70
2022-11-27T05:34:31.901Z,2.68
2022-11-27T05:37:33.412Z,2.68
2022-11-27T05:40:35.321Z,2.67
2022-11-27T05:43:36.927Z,2.69
2022-11-27T05:46:38.535Z,2.67
2022-11-27T05:49:41.462Z,2.67
2022-11-27T05:52:42.970Z,2.68
2022-11-27T05:55:44.394Z,2.74
2022-11-27T05:58:46.754Z,2.74
2022-11-27T06:01:49.693Z,2.76
2022-11-27T06:04:53.009Z,2.76
2022-11-27T06:07:54.955Z,2.77
2022-11-27T06:10:56.504Z,2.78
2022-11-27T06:13:57.950Z,2.85
2022-11-27T06:16:59.463Z,2.84
2022-11-27T06:20:02.408Z,2.83
2022-11-27T06:23:03.965Z,2.91
2022-11-27T06:26:15.863Z,2.97
2022-11-27T06:29:17.541Z,3.00
2022-11-27T06:32:18.975Z,3.00
2022-11-27T06:35:22.853Z,3.07
2022-11-27T06:38:24.483Z,3.07
2022-11-27T06:41:28.129Z,3.04
2022-11-27T06:44:29.649Z,3.08
2022-11-27T06:47:31.323Z,3.10
2022-11-27T06:50:36.635Z,3.14
2022-11-27T06:53:38.515Z,3.16
2022-11-27T06:56:40.386Z,3.12
2022-11-27T06:59:41.912Z,3.11
2022-11-27T07:02:43.500Z,3.13
2022-11-27T07:05:46.339Z,3.14
2022-11-27T07:08:48.171Z,3.11
2022-11-27T07:11:49.775Z,3.09
2022-11-27T07:14:51.249Z,3.12
2022-11-27T07:17:52.716Z,3.14
2022-11-27T07:20:56.793Z,3.16
2022-11-27T07:23:58.480Z,3.14
2022-11-27T07:27:00.008Z,3.11
2022-11-27T07:30:04.088Z,3.13
2022-11-27T07:33:05.854Z,3.18
2022-11-27T07:36:12.286Z,3.22
2022-11-27T07:39:14.131Z,3.24
2022-11-27T07:42:38.034Z,3.28
2022-11-27T07:45:37.781Z,3.28
2022-11-27T07:48:39.763Z,3.32
2022-11-27T07:51:42.683Z,3.40
2022-11-27T07:54:44.233Z,3.47
2022-11-27T07:57:45.692Z,3.51
2022-11-27T08:00:48.488Z,3.52
2022-11-27T08:03:50.188Z,3.59
2022-11-27T08:06:53.119Z,3.62
2022-11-27T08:09:54.784Z,3.68
2022-11-27T08:12:57.110Z,3.68
2022-11-27T08:16:01.816Z,3.68
2022-11-27T08:19:03.744Z,3.69
2022-11-27T08:22:10.643Z,3.70
2022-11-27T08:25:12.229Z,3.71
2022-11-27T08:28:13.992Z,3.72
2022-11-27T08:31:15.815Z,3.72
2022-11-27T08:34:17.392Z,3.74
2022-11-27T08:37:21.528Z,3.75
2022-11-27T08:40:26.157Z,3.72
2022-11-27T08:43:28.520Z,3.76
2022-11-27T08:46:29.994Z,3.83
2022-11-27T08:49:31.493Z,3.82
2022-11-27T08:52:34.387Z,3.77
2022-11-27T08:55:35.924Z,3.84
2022-11-27T08:58:37.909Z,3.86
2022-11-27T09:01:39.566Z,3.92
2022-11-27T09:04:41.310Z,4.03
2022-11-27T09:07:44.395Z,4.18
2022-11-27T09:10:46.189Z,4.26
2022-11-27T09:13:47.777Z,4.23
2022-11-27T09:16:49.286Z,4.26
2022-11-27T09:19:50.907Z,4.32
2022-11-27T09:22:53.825Z,4.47
2022-11-27T09:25:58.271Z,4.58
2022-11-27T09:28:59.961Z,4.74
2022-11-27T09:32:01.461Z,4.92
2022-11-27T09:35:03.489Z,5.06
2022-11-27T09:38:06.427Z,5.12
2022-11-27T09:41:15.611Z,5.20
2022-11-27T09:44:23.389Z,5.26
2022-11-27T09:47:29.616Z,5.27
2022-11-27T09:50:33.863Z,5.23
2022-11-27T09:53:51.006Z,5.22
2022-11-27T09:56:55.292Z,5.19
2022-11-27T09:59:58.906Z,5.21
2022-11-27T10:03:00.725Z,5.19
2022-11-27T10:06:06.585Z,5.24
2022-11-27T10:09:16.786Z,5.33
2022-11-27T10:12:22.427Z,5.35
2022-11-27T10:15:34.702Z,5.43
2022-11-27T10:18:40.328Z,5.49
2022-11-27T10:21:47.002Z,5.59
2022-11-27T10:24:56.679Z,5.65
2022-11-27T10:28:02.485Z,5.69
2022-11-27T10:31:09.945Z,5.76
2022-11-27T10:34:19.532Z,5.77
2022-11-27T10:37:23.878Z,5.83
2022-11-27T10:40:29.596Z,5.82
2022-11-27T10:43:31.551Z,5.84
2022-11-27T10:46:35.991Z,5.88
2022-11-27T10:49:39.214Z,5.93
2022-11-27T10:52:49.537Z,5.98
2022-11-27T10:56:12.491Z,6.03
2022-11-27T10:59:17.900Z,6.07
2022-11-27T11:02:27.354Z,6.09
2022-11-27T11:09:02.135Z,6.03
2022-11-27T11:12:07.675Z,6.05
2022-11-27T11:15:11.846Z,6.07
2022-11-27T11:18:16.374Z,6.06
2022-11-27T11:21:19.471Z,6.10
2022-11-27T11:24:26.283Z,6.14
2022-11-27T11:27:29.883Z,6.15
2022-11-27T11:30:34.797Z,6.17
2022-11-27T11:33:48.479Z,6.23
2022-11-27T11:36:55.131Z,6.26
2022-11-27T11:39:58.814Z,6.29
2022-11-27T11:43:02.601Z,6.31
2022-11-27T11:46:17.499Z,6.31
2022-11-27T11:49:23.148Z,6.31
2022-11-27T11:52:34.171Z,6.36
2022-11-27T11:55:38.741Z,6.39
2022-11-27T11:58:46.653Z,6.42
2022-11-27T12:02:01.415Z,6.43
2022-11-27T12:05:08.890Z,6.49
2022-11-27T12:08:19.920Z,6.52
2022-11-27T12:11:24.696Z,6.51
2022-11-27T12:14:33.422Z,6.52
2022-11-27T12:17:42.998Z,6.52
2022-11-27T12:20:51.923Z,6.50
2022-11-27T12:24:01.550Z,6.51
2022-11-27T12:27:08.273Z,6.51
2022-11-27T12:30:12.598Z,6.58
2022-11-27T12:33:22.375Z,6.60
2022-11-27T12:36:31.383Z,6.65
2022-11-27T12:39:35.495Z,6.66
2022-11-27T12:42:42.375Z,6.65
2022-11-27T12:45:47.381Z,6.62
2022-11-27T12:48:53.478Z,6.66
2022-11-27T12:51:57.092Z,6.64
2022-11-27T12:55:02.247Z,6.64
2022-11-27T12:58:06.999Z,6.62
2022-11-27T13:01:11.229Z,6.61
2022-11-27T13:04:18.899Z,6.59
2022-11-27T13:07:23.249Z,6.61
2022-11-27T13:10:27.424Z,6.64
2022-11-27T13:13:31.864Z,6.65
2022-11-27T13:16:35.918Z,6.65
2022-11-27T13:19:42.351Z,6.67
2022-11-27T13:22:44.945Z,6.70
2022-11-27T13:25:49.363Z,6.69
2022-11-27T13:28:53.249Z,6.68
2022-11-27T13:31:56.445Z,6.68
2022-11-27T13:35:02.957Z,6.66
2022-11-27T13:38:07.750Z,6.63
2022-11-27T13:41:20.246Z,6.66
2022-11-27T13:44:24.084Z,6.69
2022-11-27T13:47:26.778Z,6.69
2022-11-27T13:50:31.650Z,6.65
2022-11-27T13:53:34.552Z,6.68
2022-11-27T13:56:36.111Z,6.64
2022-11-27T13:59:39.431Z,6.66
2022-11-27T14:02:42.557Z,6.66
2022-11-27T14:05:45.791Z,6.61
2022-11-27T14:08:52.587Z,6.60
2022-11-27T14:11:54.529Z,6.62
2022-11-27T14:15:01.720Z,6.56
2022-11-27T14:18:09.436Z,6.49
2022-11-27T14:21:23.286Z,6.43
2022-11-27T14:24:41.287Z,6.45
2022-11-27T14:27:43.505Z,6.39
2022-11-27T14:30:46.700Z,6.42
2022-11-27T14:34:13.531Z,6.34
2022-11-27T14:37:22.221Z,6.29
2022-11-27T14:40:26.367Z,6.25
2022-11-27T14:43:28.154Z,6.21
2022-11-27T14:46:31.014Z,6.20
2022-11-27T14:49:33.712Z,6.17
2022-11-27T14:52:36.764Z,6.19
2022-11-27T14:55:38.281Z,6.16
2022-11-27T14:58:44.816Z,6.18
2022-11-27T15:01:57.083Z,6.16
2022-11-27T15:05:02.733Z,6.15
2022-11-27T15:08:09.138Z,6.15
2022-11-27T15:11:30.031Z,6.12
2022-11-27T15:14:36.761Z,6.13
2022-11-27T15:17:40.090Z,6.13
2022-11-27T15:20:43.038Z,6.13
2022-11-27T15:23:46.519Z,6.09
2022-11-27T15:26:48.152Z,6.07
2022-11-27T15:30:00.659Z,6.10
2022-11-27T15:33:02.425Z,6.13
2022-11-27T15:36:14.326Z,6.14
2022-11-27T15:39:25.508Z,6.12
2022-11-27T15:42:27.551Z,6.08
2022-11-27T15:45:30.319Z,6.09
2022-11-27T15:48:31.945Z,6.12
2022-11-27T15:51:33.419Z,6.16
2022-11-27T15:54:37.007Z,6.20
2022-11-27T15:57:38.887Z,6.18
2022-11-27T16:00:40.800Z,6.21
2022-11-27T16:03:42.381Z,6.21
2022-11-27T16:06:44.137Z,6.19
2022-11-27T16:09:47.939Z,6.20
2022-11-27T16:12:49.656Z,6.19
2022-11-27T16:15:51.370Z,6.20
2022-11-27T16:18:56.613Z,6.19
2022-11-27T16:21:58.582Z,6.17
2022-11-27T16:25:01.685Z,6.18
2022-11-27T16:28:03.548Z,6.20
2022-11-27T16:31:07.627Z,6.18
2022-11-27T16:34:09.684Z,6.16
2022-11-27T16:37:15.600Z,6.15
2022-11-27T16:40:21.357Z,6.16
2022-11-27T16:43:23.029Z,6.18
2022-11-27T16:46:26.327Z,6.22
2022-11-27T16:49:27.924Z,6.20
2022-11-27T16:52:29.453Z,6.22
2022-11-27T16:55:32.706Z,6.14
2022-11-27T16:58:34.689Z,6.15
2022-11-27T17:01:37.305Z,6.14
2022-11-27T17:04:39.491Z,6.09
2022-11-27T17:07:42.508Z,6.09
2022-11-27T17:10:47.491Z,6.08
2022-11-27T17:13:49.755Z,6.08
2022-11-27T17:16:51.662Z,6.06
2022-11-27T17:20:00.510Z,6.04
2022-11-27T17:23:02.291Z,6.01
2022-11-27T17:26:08.750Z,5.99
2022-11-27T17:29:10.720Z,6.01
2022-11-27T17:32:13.528Z,6.00
2022-11-27T17:35:15.598Z,6.03
2022-11-27T17:38:17.119Z,6.03
2022-11-27T17:41:20.381Z,6.02
2022-11-27T17:44:22.007Z,6.08
2022-11-27T17:47:23.644Z,6.08
2022-11-27T17:50:25.184Z,6.04
2022-11-27T17:53:26.783Z,6.05
2022-11-27T17:56:29.711Z,5.99
2022-11-27T17:59:31.177Z,6.02
2022-11-27T18:02:32.693Z,6.00
2022-11-27T18:05:36.256Z,6.02
2022-11-27T18:08:37.852Z,5.98
2022-11-27T18:11:40.709Z,5.95
2022-11-27T18:14:42.148Z,5.98
2022-11-27T18:17:43.728Z,5.96
2022-11-27T18:20:46.833Z,5.98
2022-11-27T18:24:21.257Z,5.96
2022-11-27T18:27:15.250Z,5.92
2022-11-27T18:30:17.094Z,5.90
2022-11-27T18:33:18.707Z,5.89
2022-11-27T18:36:20.494Z,5.85
2022-11-27T18:39:22.034Z,5.87
2022-11-27T18:42:25.659Z,5.85
2022-11-27T18:45:33.445Z,5.83
2022-11-27T18:48:38.678Z,5.85
2022-11-27T18:51:40.645Z,5.91
2022-11-27T18:54:42.239Z,5.91
2022-11-27T18:57:46.245Z,5.98
2022-11-27T19:00:47.757Z,5.97
2022-11-27T19:03:50.150Z,5.97
2022-11-27T19:06:51.774Z,5.89
2022-11-27T19:09:53.397Z,5.84
2022-11-27T19:12:58.534Z,5.79
2022-11-27T19:16:00.406Z,5.77
2022-11-27T19:19:02.947Z,5.78
2022-11-27T19:22:04.418Z,5.77
2022-11-27T19:25:06.445Z,5.73
2022-11-27T19:28:10.228Z,5.72
2022-11-27T19:31:12.815Z,5.70
2022-11-27T19:34:15.769Z,5.68
2022-11-27T19:37:33.148Z,5.65
2022-11-27T19:40:38.662Z,5.64
2022-11-27T19:43:41.630Z,5.60
2022-11-27T19:46:44.971Z,5.57
2022-11-27T19:49:46.613Z,5.53
2022-11-27T19:52:48.200Z,5.54
2022-11-27T19:55:52.659Z,5.52
2022-11-27T19:58:55.610Z,5.51
2022-11-27T20:01:57.141Z,5.49
2022-11-27T20:04:58.754Z,5.46
2022-11-27T20:08:00.900Z,5.43
2022-11-27T20:11:02.742Z,5.48
2022-11-27T20:14:09.040Z,5.46
2022-11-27T20:17:10.605Z,5.45
2022-11-27T20:20:13.484Z,5.43
2022-11-27T20:23:15.008Z,5.40
2022-11-27T20:26:17.901Z,5.41
2022-11-27T20:29:20.733Z,5.43
2022-11-27T20:32:22.554Z,5.43
2022-11-27T20:35:25.872Z,5.37
2022-11-27T20:38:27.409Z,5.35
2022-11-27T20:41:29.469Z,5.36
2022-11-27T20:44:32.296Z,5.35
2022-11-27T20:47:34.875Z,5.40
2022-11-27T20:50:37.193Z,5.35
2022-11-27T20:53:38.851Z,5.31
2022-11-27T20:56:45.671Z,5.30
2022-11-27T20:59:48.631Z,5.31
2022-11-27T21:02:50.160Z,5.30
2022-11-27T21:05:51.751Z,5.22
2022-11-27T21:08:53.555Z,5.20
2022-11-27T21:11:55.197Z,5.13
2022-11-27T21:14:58.818Z,5.05
2022-11-27T21:18:00.363Z,5.03
2022-11-27T21:21:05.613Z,5.03
2022-11-27T21:24:07.470Z,4.95
2022-11-27T21:27:09.975Z,4.92
2022-11-27T21:30:13.084Z,4.93
2022-11-27T21:33:16.951Z,4.91
2022-11-27T21:36:18.833Z,4.88
2022-11-27T21:39:20.961Z,4.82
2022-11-27T21:42:22.480Z,4.84
2022-11-27T21:45:25.316Z,4.78
2022-11-27T21:48:27.932Z,4.78
2022-11-27T21:51:32.689Z,4.76
2022-11-27T21:54:34.403Z,4.74
2022-11-27T21:57:35.954Z,4.70
2022-11-27T22:00:39.274Z,4.69
2022-11-27T22:03:44.506Z,4.69
2022-11-27T22:06:46.123Z,4.70
2022-11-27T22:09:47.661Z,4.64
2022-11-27T22:12:49.317Z,4.57
2022-11-27T22:15:52.232Z,4.52
2022-11-27T22:18:53.913Z,4.49
2022-11-27T22:21:55.582Z,4.47
2022-11-27T22:24:57.427Z,4.49
2022-11-27T22:27:58.944Z,4.49
2022-11-27T22:31:06.793Z,4.49
2022-11-27T22:34:08.399Z,4.47
2022-11-27T22:37:09.931Z,4.49
2022-11-27T22:40:12.198Z,4.46
2022-11-27T22:43:13.837Z,4.45
2022-11-27T22:46:18.185Z,4.48
2022-11-27T22:49:19.776Z,4.48
2022-11-27T22:52:21.206Z,4.48
2022-11-27T22:55:22.972Z,4.45
2022-11-27T22:58:24.446Z,4.45
2022-11-27T23:01:27.873Z,4.46
2022-11-27T23:04:32.113Z,4.49
2022-11-27T23:07:33.673Z,4.49
2022-11-27T23:10:35.306Z,4.53
2022-11-27T23:13:36.873Z,4.53
2022-11-27T23:16:40.264Z,4.55
2022-11-27T23:19:41.983Z,4.55
2022-11-27T23:22:43.525Z,4.58
2022-11-27T23:25:45.106Z,4.68
2022-11-27T23:28:46.886Z,4.65
2022-11-27T23:31:49.931Z,4.61
2022-11-27T23:34:51.491Z,4.57
2022-11-27T23:37:53.153Z,4.56
2022-11-27T23:40:55.234Z,4.54
2022-11-27T23:43:56.842Z,4.51
2022-11-27T23:46:59.805Z,4.48
2022-11-27T23:50:01.480Z,4.44
2022-11-27T23:53:03.059Z,4.43
2022-11-27T23:56:05.118Z,4.39
2022-11-27T23:59:06.824Z,4.39
